| Date | Time | Temp. (oF) | Dew Point (oF) | Rel. Hum. (%) | Press. (in.) | Wind Dir. | Wind Speed (mph) | Hourly Rainfall (in.) |
|
|---|---|---|---|---|---|---|---|---|---|
| 1 | 06/15 | 00:00 | 75 | 71 | 88 | 30.10 | SSE | 2 | 0.00 |
| 2 | 06/14 | 23:00 | 77 | 71 | 84 | 30.10 | ESE | 4 | 0.00 |
| 3 | 06/14 | 22:00 | 79 | 71 | 78 | 30.09 | SSE | 4 | 0.00 |
| 4 | 06/14 | 21:00 | 81 | 71 | 73 | 30.06 | SE | 4 | 0.00 |
| 5 | 06/14 | 20:00 | 84 | 71 | 66 | 30.05 | ESE | 4 | 0.00 |
| 6 | 06/14 | 19:00 | 86 | 71 | 63 | 30.03 | ESE | 4 | 0.00 |
| 7 | 06/14 | 18:00 | 87 | 72 | 62 | 30.04 | SE | 7 | 0.00 |
| 8 | 06/14 | 17:00 | 87 | 74 | 67 | 30.04 | W | 3 | 0.00 |
| 9 | 06/14 | 16:00 | 86 | 74 | 68 | 30.05 | SE | 2 | 0.00 |
| 10 | 06/14 | 15:00 | 84 | 75 | 75 | 30.08 | SE | 3 | 0.00 |
| 11 | 06/14 | 14:00 | 81 | 73 | 78 | 30.09 | SSW | 4 | 0.00 |
| 12 | 06/14 | 13:00 | 78 | 72 | 84 | 30.11 | NE | 4 | 0.00 |
| 13 | 06/14 | 12:00 | 76 | 71 | 87 | 30.12 | N | 3 | 0.00 |
| 14 | 06/14 | 11:00 | 75 | 71 | 89 | 30.12 | ESE | 2 | 0.00 |
| 15 | 06/14 | 10:00 | 75 | 71 | 90 | 30.11 | ESE | 5 | 0.00 |
| 16 | 06/14 | 09:00 | 74 | 70 | 90 | 30.11 | NNE | 2 | 0.00 |
| 17 | 06/14 | 08:00 | 74 | 71 | 92 | 30.08 | NE | 5 | 0.00 |
| 18 | 06/14 | 07:00 | 74 | 71 | 92 | 30.06 | NE | 2 | 0.00 |
| 19 | 06/14 | 06:00 | 73 | 70 | 92 | 30.05 | E | 1 | 0.00 |
| 20 | 06/14 | 05:00 | 74 | 70 | 90 | 30.03 | NE | 3 | 0.00 |
| 21 | 06/14 | 04:00 | 74 | 70 | 90 | 30.01 | SSE | 0 | 0.00 |
| 22 | 06/14 | 03:00 | 76 | 71 | 87 | 30.02 | SE | 0 | 0.00 |
| 23 | 06/14 | 02:00 | 77 | 72 | 85 | 30.00 | ENE | 1 | 0.00 |
| 24 | 06/14 | 01:00 | 78 | 72 | 83 | 30.00 | E | 1 | 0.00 |